الصفحة الرئيسية
METAR-TAF:

METAR-TAF

مطار :

مطار أوساكا الدولي

أوساكا, اليابان

دائرة عرض: 34-47N, خط طول: 135-27E, ارتفاع: 12 متر

مراقبة الطقس الحالي

تاريخ ووقت الإصدار 37 دقيقة قبل الساعة 01:00UTC
ريح 5 عقدة من الجنوب/الجنوب الغربي, الاتجاه يتراوح بين الجنوب و الغرب
درجة الحرارة 27°درجة مئوية
الرطوبة 79%
ضغط 1009 hPa
الرؤية 10 كم أو أكثر
غيوم قليلة على ارتفاع 1500 قدم
غيوم مفككة على ارتفاع 6000 قدم
غيوم مفككة على ارتفاع 17000 قدم
مطر خفيف

METAR: RJOO 250100Z 21005KT 170V260 9999 -RA FEW015 BKN060 BKN170 27/23 Q1009 RMK 1CU015 5SC060 6AC170 A2982

زمن: 10:37 (01:37 UTC)

توقعات

تاريخ ووقت الإصدار 2ساعات و 28 دقيقة قبل الساعة 23:09UTC
التوقعات صالحة من25 الساعة 00 UTC إلى 26 الساعة 06 UTC
ريح 4 عقدة من الجنوب الغربي
الرؤية 10 كم أو أكثر
غيوم قليلة على ارتفاع 1500 قدم
غيوم متفرقة على ارتفاع 4500 قدم
أصبح
من 25 الساعة 04 UTC إلى 25 الساعة 06 UTC
ريح 6 عقدة من الغرب/الجنوب الغربي

TAF: RJOO 242309Z 2500/2606 22004KT 9999 FEW015 SCT045 BECMG 2504/2506 25006KT

أرصاد الطقس والتوقعات من أكثر من 4000 مطار (تقارير الطقس للمطار METAR والتنبؤ بالطقس بالمطارTAF).

المحطات المتاحة هي النقط الصفراء والحمراء على الخريطة.

حرك المؤشر فوق النقطة لمعرفة اسم المحطة.

ثم انقر لمعرفة أرصاد وتوقعات الطقس.

لتغيير الخارطة: اضغط على الأزرار الخضراء مع رمز الصليب الأسود للتكبير. على الزر الأخضر مع شرطة للتصغير، أو على الأسهم الخضراء للخرائط المجاورة.


METAR-TAF: